createdAt,value
2017-09-04T00:02:25.800Z,77.70
2017-09-04T00:04:54.094Z,78.10
2017-09-04T00:07:22.432Z,78.10
2017-09-04T00:09:50.739Z,78.10
2017-09-04T00:12:19.027Z,78.10
2017-09-04T00:14:47.387Z,78.60
2017-09-04T00:17:15.699Z,79.00
2017-09-04T00:19:44.130Z,78.80
2017-09-04T00:22:12.420Z,78.90
2017-09-04T00:24:40.709Z,79.00
2017-09-04T00:27:09.034Z,79.00
2017-09-04T00:29:37.354Z,79.20
2017-09-04T00:32:05.651Z,79.70
2017-09-04T00:34:34.010Z,79.30
2017-09-04T00:37:02.343Z,79.40
2017-09-04T00:39:30.653Z,79.70
2017-09-04T00:41:58.982Z,79.80
2017-09-04T00:44:27.304Z,79.90
2017-09-04T00:46:55.616Z,80.00
2017-09-04T00:49:23.914Z,80.10
2017-09-04T00:51:52.252Z,80.30
2017-09-04T00:54:20.555Z,80.50
2017-09-04T00:56:49.638Z,80.60
2017-09-04T00:59:18.648Z,81.20
2017-09-04T01:01:48.428Z,81.00
2017-09-04T01:04:17.264Z,80.80
2017-09-04T01:06:45.599Z,80.90
2017-09-04T01:09:13.919Z,81.00
2017-09-04T01:11:42.260Z,81.30
2017-09-04T01:14:10.618Z,80.80
2017-09-04T01:16:39.213Z,80.80
2017-09-04T01:19:07.527Z,80.50
2017-09-04T01:21:35.883Z,80.70
2017-09-04T01:24:04.181Z,81.50
2017-09-04T01:26:32.492Z,81.70
2017-09-04T01:29:00.828Z,81.30
2017-09-04T01:31:29.142Z,82.00
2017-09-04T01:33:57.451Z,81.10
2017-09-04T01:36:25.755Z,81.00
2017-09-04T01:38:54.068Z,81.30
2017-09-04T01:41:22.354Z,81.50
2017-09-04T01:43:50.675Z,81.50
2017-09-04T01:46:19.015Z,82.10
2017-09-04T01:48:47.315Z,81.60
2017-09-04T01:51:15.725Z,81.10
2017-09-04T01:53:44.022Z,81.20
2017-09-04T01:56:12.303Z,81.50
2017-09-04T01:58:40.858Z,81.30
2017-09-04T02:01:09.143Z,81.90
2017-09-04T02:03:37.442Z,81.40
2017-09-04T02:06:05.848Z,81.50
2017-09-04T02:08:34.168Z,81.40
2017-09-04T02:11:02.488Z,81.60
2017-09-04T02:13:30.814Z,81.20
2017-09-04T02:15:59.102Z,81.20
2017-09-04T02:18:28.355Z,81.80
2017-09-04T02:20:56.682Z,81.90
2017-09-04T02:23:24.984Z,81.90
2017-09-04T02:25:53.292Z,82.00
2017-09-04T02:28:21.597Z,81.60
2017-09-04T02:30:49.908Z,81.50
2017-09-04T02:33:18.914Z,81.60
2017-09-04T02:35:47.623Z,81.70
2017-09-04T02:38:16.998Z,81.30
2017-09-04T02:40:45.279Z,81.10
2017-09-04T02:43:13.601Z,81.40
2017-09-04T02:45:41.924Z,82.10
2017-09-04T02:48:10.235Z,82.40
2017-09-04T02:50:38.589Z,82.40
2017-09-04T02:53:06.892Z,82.40
2017-09-04T02:55:35.256Z,82.10
2017-09-04T02:58:03.608Z,82.00
2017-09-04T03:00:31.907Z,82.60
2017-09-04T03:03:00.256Z,83.10
2017-09-04T03:05:28.542Z,83.40
2017-09-04T03:07:56.843Z,83.40
2017-09-04T03:10:25.161Z,83.90
2017-09-04T03:12:53.463Z,83.70
2017-09-04T03:15:21.804Z,83.80
2017-09-04T03:18:11.223Z,84.00
2017-09-04T03:20:39.579Z,83.70
2017-09-04T03:23:07.900Z,83.70
2017-09-04T03:25:36.195Z,83.40
2017-09-04T03:28:04.516Z,83.40
2017-09-04T03:30:32.842Z,83.70
2017-09-04T03:33:01.135Z,83.80
2017-09-04T03:35:29.428Z,83.40
2017-09-04T03:37:57.741Z,83.40
2017-09-04T03:40:26.072Z,84.00
2017-09-04T03:42:54.415Z,83.80
2017-09-04T03:45:22.782Z,84.00
2017-09-04T03:47:51.080Z,83.70
2017-09-04T03:50:19.418Z,83.80
2017-09-04T03:52:48.498Z,83.60
2017-09-04T03:55:17.867Z,83.60
2017-09-04T03:57:46.689Z,83.60
2017-09-04T04:00:15.040Z,83.50
2017-09-04T04:02:43.341Z,83.50
2017-09-04T04:05:11.647Z,83.50
2017-09-04T04:07:39.967Z,83.60
2017-09-04T04:10:08.276Z,83.20
2017-09-04T04:12:36.604Z,83.70
2017-09-04T04:15:04.903Z,83.70
2017-09-04T04:17:33.227Z,83.70
2017-09-04T04:20:01.595Z,83.90
2017-09-04T04:22:29.935Z,83.70
2017-09-04T04:24:58.268Z,84.10
2017-09-04T04:27:26.563Z,85.00
2017-09-04T04:29:54.856Z,84.30
2017-09-04T04:32:23.176Z,84.60
2017-09-04T04:34:51.499Z,84.70
2017-09-04T04:37:19.791Z,84.60
2017-09-04T04:39:48.464Z,84.40
2017-09-04T04:42:17.747Z,84.50
2017-09-04T04:44:47.648Z,84.40
2017-09-04T04:47:26.228Z,84.40
2017-09-04T04:49:54.546Z,83.90
2017-09-04T04:52:22.917Z,84.40
2017-09-04T04:54:51.233Z,83.40
2017-09-04T04:57:19.543Z,83.20
2017-09-04T04:59:48.406Z,83.40
2017-09-04T05:02:16.779Z,82.50
2017-09-04T05:04:45.087Z,82.10
2017-09-04T05:07:13.404Z,82.00
2017-09-04T05:09:41.688Z,82.00
2017-09-04T05:12:09.967Z,81.90
2017-09-04T05:14:38.282Z,81.90
2017-09-04T05:17:06.571Z,82.00
2017-09-04T05:19:34.867Z,82.10
2017-09-04T05:22:03.178Z,82.90
2017-09-04T05:24:31.464Z,82.00
2017-09-04T05:26:59.820Z,81.30
2017-09-04T05:29:28.151Z,80.80
2017-09-04T05:31:56.555Z,80.70
2017-09-04T05:34:35.288Z,81.20
2017-09-04T05:37:03.601Z,80.20
2017-09-04T05:39:31.902Z,76.30
2017-09-04T05:42:00.225Z,68.00
2017-09-04T05:44:32.332Z,62.60
2017-09-04T05:47:00.661Z,57.80
2017-09-04T05:49:29.040Z,54.00
2017-09-04T05:51:57.362Z,51.90
2017-09-04T05:54:25.656Z,50.60
2017-09-04T05:56:53.987Z,49.90
2017-09-04T05:59:22.329Z,50.60
2017-09-04T06:01:50.637Z,50.50
2017-09-04T06:04:18.967Z,49.70
2017-09-04T06:06:47.294Z,49.50
2017-09-04T06:09:15.617Z,49.00
2017-09-04T06:11:43.937Z,49.10
2017-09-04T06:14:12.263Z,49.80
2017-09-04T06:16:41.440Z,51.40
2017-09-04T06:19:09.805Z,52.50
2017-09-04T06:21:38.145Z,51.50
2017-09-04T06:24:06.435Z,50.50
2017-09-04T06:26:34.728Z,49.80
2017-09-04T06:29:03.044Z,48.10
2017-09-04T06:31:31.381Z,44.70
2017-09-04T06:33:59.674Z,41.90
2017-09-04T06:36:27.998Z,39.90
2017-09-04T06:38:56.326Z,39.10
2017-09-04T06:41:24.625Z,39.30
2017-09-04T06:43:52.966Z,40.40
2017-09-04T06:46:21.264Z,41.30
2017-09-04T06:48:49.595Z,41.90
2017-09-04T06:51:17.921Z,42.00
2017-09-04T06:53:46.229Z,40.80
2017-09-04T06:56:14.558Z,39.50
2017-09-04T06:58:42.851Z,39.20
2017-09-04T07:01:11.184Z,38.60
2017-09-04T07:03:39.518Z,37.60
2017-09-04T07:06:07.963Z,36.40
2017-09-04T07:08:36.260Z,35.90
2017-09-04T07:11:04.582Z,35.20
2017-09-04T07:13:33.092Z,34.90
2017-09-04T07:16:01.419Z,34.40
2017-09-04T07:18:29.734Z,34.00
2017-09-04T07:20:58.032Z,33.30
2017-09-04T07:23:26.357Z,32.90
2017-09-04T07:25:54.677Z,33.60
2017-09-04T07:28:22.969Z,32.50
2017-09-04T07:30:51.310Z,32.70
2017-09-04T07:33:19.646Z,32.00
2017-09-04T07:35:47.981Z,31.40
2017-09-04T07:38:16.280Z,31.00
2017-09-04T07:40:44.894Z,30.90
2017-09-04T07:43:13.223Z,30.40
2017-09-04T07:45:41.578Z,30.20
2017-09-04T07:48:09.913Z,30.80
2017-09-04T07:50:38.214Z,31.10
2017-09-04T07:53:06.501Z,31.70
2017-09-04T07:55:34.821Z,31.20
2017-09-04T07:58:03.146Z,31.50
2017-09-04T08:00:31.480Z,32.50
2017-09-04T08:02:59.846Z,31.40
2017-09-04T08:05:28.277Z,31.50
2017-09-04T08:07:56.599Z,30.80
2017-09-04T08:10:24.928Z,30.50
2017-09-04T08:12:53.258Z,31.00
2017-09-04T08:15:21.552Z,30.30
2017-09-04T08:17:49.894Z,30.40
2017-09-04T08:20:18.919Z,31.50
2017-09-04T08:22:47.218Z,32.30
2017-09-04T08:25:15.555Z,32.80
2017-09-04T08:27:43.858Z,33.10
2017-09-04T08:30:12.153Z,33.30
2017-09-04T08:32:40.466Z,33.70
2017-09-04T08:35:08.803Z,33.50
2017-09-04T08:37:37.153Z,33.80
2017-09-04T08:40:05.470Z,33.80
2017-09-04T08:42:33.765Z,34.00
2017-09-04T08:45:02.103Z,34.60
2017-09-04T08:47:30.422Z,34.40
2017-09-04T08:49:59.090Z,33.70
2017-09-04T08:52:27.547Z,33.90
2017-09-04T08:54:55.908Z,34.00
2017-09-04T08:57:24.207Z,34.60
2017-09-04T08:59:52.517Z,34.00
2017-09-04T09:02:20.838Z,34.50
2017-09-04T09:04:49.128Z,34.80
2017-09-04T09:07:17.581Z,35.30
2017-09-04T09:09:45.866Z,35.70
2017-09-04T09:12:14.162Z,34.20
2017-09-04T09:14:42.718Z,34.70
2017-09-04T09:17:11.014Z,34.40
2017-09-04T09:22:32.570Z,35.00
2017-09-04T09:25:01.001Z,34.90
2017-09-04T09:27:29.327Z,35.10
2017-09-04T09:29:57.649Z,34.90
2017-09-04T09:32:25.985Z,35.00
2017-09-04T09:34:54.278Z,35.50
2017-09-04T09:37:22.570Z,35.40
2017-09-04T09:39:50.925Z,36.30
2017-09-04T09:42:19.237Z,35.80
2017-09-04T09:44:47.562Z,36.80
2017-09-04T09:47:15.886Z,35.70
2017-09-04T09:49:44.193Z,35.20
2017-09-04T09:52:12.526Z,34.40
2017-09-04T09:54:40.829Z,33.30
2017-09-04T09:57:09.149Z,34.00
2017-09-04T09:59:37.483Z,32.80
2017-09-04T10:02:06.641Z,32.20
2017-09-04T10:04:34.995Z,31.30
2017-09-04T10:07:03.284Z,31.20
2017-09-04T10:09:31.573Z,30.70
2017-09-04T10:11:59.918Z,30.90
2017-09-04T10:14:28.236Z,30.70
2017-09-04T10:16:56.529Z,32.10
2017-09-04T10:19:24.863Z,31.00
2017-09-04T10:21:53.154Z,32.10
2017-09-04T10:24:21.513Z,30.80
2017-09-04T10:26:49.830Z,31.30
2017-09-04T10:29:18.137Z,32.90
2017-09-04T10:31:46.451Z,33.20
2017-09-04T10:34:14.770Z,33.00
2017-09-04T10:36:57.953Z,33.60
2017-09-04T10:39:26.439Z,33.50
2017-09-04T10:41:54.829Z,32.80
2017-09-04T10:44:23.164Z,34.20
2017-09-04T10:46:51.457Z,35.20
2017-09-04T10:49:19.839Z,36.00
2017-09-04T10:51:48.129Z,36.40
2017-09-04T10:54:16.446Z,35.20
2017-09-04T10:56:44.950Z,34.00
2017-09-04T10:59:13.277Z,32.70
2017-09-04T11:01:41.599Z,31.70
2017-09-04T11:04:09.932Z,32.30
2017-09-04T11:06:38.249Z,33.10
2017-09-04T11:09:06.592Z,31.00
2017-09-04T11:11:34.922Z,31.70
2017-09-04T11:14:03.212Z,32.70
2017-09-04T11:16:31.529Z,33.90
2017-09-04T11:18:59.832Z,34.20
2017-09-04T11:21:28.160Z,32.70
2017-09-04T11:23:56.545Z,31.20
2017-09-04T11:26:24.849Z,31.70
2017-09-04T11:28:53.146Z,31.50
2017-09-04T11:31:21.463Z,31.40
2017-09-04T11:33:49.770Z,32.10
2017-09-04T11:36:18.101Z,32.90
2017-09-04T11:38:46.454Z,33.40
2017-09-04T11:41:14.751Z,34.00
2017-09-04T11:43:43.064Z,33.10
2017-09-04T11:46:11.508Z,31.20
2017-09-04T11:48:39.843Z,32.20
2017-09-04T11:51:08.165Z,31.50
2017-09-04T11:53:36.461Z,31.40
2017-09-04T11:56:04.817Z,31.60
2017-09-04T11:58:33.117Z,31.10
2017-09-04T12:03:40.627Z,30.70
2017-09-04T12:06:09.402Z,32.10
2017-09-04T12:08:37.689Z,33.50
2017-09-04T12:11:06.021Z,33.70
2017-09-04T12:13:34.325Z,31.80
2017-09-04T12:16:02.663Z,32.30
2017-09-04T12:18:30.953Z,32.40
2017-09-04T12:20:59.313Z,33.20
2017-09-04T12:23:27.635Z,30.70
2017-09-04T12:25:55.927Z,31.80
2017-09-04T12:28:24.266Z,31.60
2017-09-04T12:30:52.637Z,32.60
2017-09-04T12:33:20.958Z,31.30
2017-09-04T12:35:49.274Z,30.90
2017-09-04T12:38:17.642Z,31.60
2017-09-04T12:40:46.226Z,31.40
2017-09-04T12:43:15.330Z,31.70
2017-09-04T12:45:43.641Z,32.20
2017-09-04T12:48:11.983Z,33.60
2017-09-04T12:50:40.275Z,32.70
2017-09-04T12:53:09.374Z,32.50
2017-09-04T12:55:37.698Z,33.00
2017-09-04T12:58:06.029Z,31.90
2017-09-04T13:00:34.320Z,32.40
2017-09-04T13:03:02.660Z,32.90
2017-09-04T13:05:30.982Z,33.30
2017-09-04T13:07:59.283Z,33.30
2017-09-04T13:10:31.401Z,33.60
2017-09-04T13:13:09.602Z,34.50
2017-09-04T13:15:43.309Z,32.90
2017-09-04T13:18:17.856Z,32.00
2017-09-04T13:34:23.869Z,32.80
2017-09-04T13:37:02.733Z,33.00
2017-09-04T13:53:21.374Z,32.90
2017-09-04T13:55:49.700Z,32.00
2017-09-04T13:58:23.380Z,31.80
2017-09-04T14:00:57.223Z,31.80
2017-09-04T14:03:31.221Z,31.90
2017-09-04T14:06:05.116Z,31.10
2017-09-04T14:08:35.385Z,31.80
2017-09-04T14:11:09.233Z,30.30
2017-09-04T14:13:43.093Z,29.80
2017-09-04T14:16:17.010Z,30.30
2017-09-04T14:18:45.329Z,30.40
2017-09-04T14:21:13.763Z,29.20
2017-09-04T14:23:42.101Z,28.60
2017-09-04T14:26:10.386Z,29.60
2017-09-04T14:28:38.697Z,30.30
2017-09-04T14:31:07.022Z,29.70
2017-09-04T14:33:35.315Z,28.80
2017-09-04T14:36:03.654Z,29.80
2017-09-04T14:38:31.940Z,30.70
2017-09-04T14:41:03.180Z,30.20
2017-09-04T14:43:37.263Z,30.40
2017-09-04T14:59:28.029Z,31.60
2017-09-04T15:01:56.364Z,33.50
2017-09-04T15:04:24.663Z,33.50
2017-09-04T15:09:56.458Z,33.10
2017-09-04T15:12:24.785Z,33.50
2017-09-04T15:14:53.109Z,33.30
2017-09-04T15:17:21.422Z,31.80
2017-09-04T15:19:49.765Z,32.70
2017-09-04T15:22:18.093Z,33.50
2017-09-04T15:24:46.440Z,34.90
2017-09-04T15:27:14.765Z,33.60
2017-09-04T15:29:43.062Z,32.70
2017-09-04T15:32:11.362Z,33.00
2017-09-04T15:34:39.697Z,33.60
2017-09-04T15:37:08.043Z,33.40
2017-09-04T15:39:36.383Z,34.00
2017-09-04T15:42:04.686Z,33.70
2017-09-04T15:44:32.981Z,35.10
2017-09-04T15:47:01.312Z,34.50
2017-09-04T15:49:29.634Z,33.30
2017-09-04T15:51:58.066Z,33.20
2017-09-04T15:54:26.390Z,34.30
2017-09-04T15:56:54.731Z,33.40
2017-09-04T15:59:23.075Z,33.50
2017-09-04T16:01:51.379Z,34.40
2017-09-04T16:04:19.701Z,34.60
2017-09-04T16:06:50.310Z,35.20
2017-09-04T16:09:18.631Z,36.20
2017-09-04T16:11:53.365Z,36.20
2017-09-04T16:14:22.032Z,36.50
2017-09-04T16:16:51.128Z,37.40
2017-09-04T16:19:26.913Z,37.80
2017-09-04T16:21:56.888Z,38.00
2017-09-04T16:24:27.485Z,38.60
2017-09-04T16:27:00.142Z,37.80
2017-09-04T16:29:33.160Z,37.90
2017-09-04T16:32:01.483Z,37.50
2017-09-04T16:34:35.445Z,35.50
2017-09-04T16:50:33.046Z,40.70
2017-09-04T16:53:01.365Z,42.60
2017-09-04T16:55:36.051Z,41.80
2017-09-04T16:58:04.432Z,43.20
2017-09-04T17:00:32.738Z,43.00
2017-09-04T17:03:01.132Z,43.70
2017-09-04T17:05:29.449Z,43.70
2017-09-04T17:07:57.787Z,44.40
2017-09-04T17:10:26.125Z,44.20
2017-09-04T17:12:55.253Z,45.80
2017-09-04T17:15:33.489Z,45.60
2017-09-04T17:18:03.613Z,45.80
2017-09-04T17:20:31.949Z,45.60
2017-09-04T17:23:02.198Z,46.10
2017-09-04T17:25:30.759Z,46.20
2017-09-04T17:27:59.116Z,46.90
2017-09-04T17:30:27.427Z,46.50
2017-09-04T17:32:55.753Z,47.30
2017-09-04T17:35:24.070Z,47.30
2017-09-04T17:37:52.427Z,48.40
2017-09-04T17:40:20.730Z,48.50
2017-09-04T17:42:49.280Z,48.30
2017-09-04T17:45:17.597Z,48.20
2017-09-04T17:47:45.893Z,48.70
2017-09-04T17:50:14.196Z,49.00
2017-09-04T17:52:42.534Z,49.00
2017-09-04T17:55:10.861Z,49.20
2017-09-04T17:59:57.728Z,48.70
2017-09-04T18:02:26.023Z,49.30
2017-09-04T18:04:54.363Z,49.50
2017-09-04T18:07:22.658Z,50.10
2017-09-04T18:09:50.945Z,50.70
2017-09-04T18:12:19.261Z,50.80
2017-09-04T18:14:47.549Z,51.30
2017-09-04T18:17:15.949Z,51.30
2017-09-04T18:19:44.245Z,51.20
2017-09-04T18:22:12.599Z,51.30
2017-09-04T18:24:40.911Z,51.70
2017-09-04T18:27:09.217Z,51.70
2017-09-04T18:29:37.546Z,52.00
2017-09-04T18:32:05.903Z,52.20
2017-09-04T18:34:34.219Z,52.10
2017-09-04T18:37:02.622Z,52.40
2017-09-04T18:39:30.930Z,52.30
2017-09-04T18:41:59.345Z,52.80
2017-09-04T18:44:27.664Z,53.20
2017-09-04T18:46:55.965Z,53.00
2017-09-04T18:49:25.006Z,52.90
2017-09-04T18:51:54.158Z,53.30
2017-09-04T18:54:23.341Z,53.40
2017-09-04T18:56:51.912Z,53.60
2017-09-04T18:59:20.264Z,53.80
2017-09-04T19:01:48.640Z,54.40
2017-09-04T19:04:16.956Z,53.70
2017-09-04T19:06:45.286Z,53.60
2017-09-04T19:09:13.794Z,53.40
2017-09-04T19:11:42.117Z,53.80
2017-09-04T19:14:10.457Z,54.00
2017-09-04T19:16:38.764Z,54.20
2017-09-04T19:19:07.077Z,54.90
2017-09-04T19:21:35.438Z,55.30
2017-09-04T19:24:03.765Z,54.80
2017-09-04T19:26:32.119Z,54.60
2017-09-04T19:29:00.453Z,55.10
2017-09-04T19:31:44.751Z,56.50
2017-09-04T19:34:14.189Z,56.00
2017-09-04T19:36:42.521Z,56.00
2017-09-04T19:39:10.850Z,56.60
2017-09-04T19:41:39.193Z,56.80
2017-09-04T19:44:07.490Z,58.00
2017-09-04T19:46:35.797Z,57.90
2017-09-04T19:49:04.125Z,58.20
2017-09-04T19:51:32.489Z,58.60
2017-09-04T19:54:00.918Z,58.70
2017-09-04T19:56:29.441Z,58.40
2017-09-04T19:58:57.770Z,59.30
2017-09-04T20:01:26.113Z,57.50
2017-09-04T20:03:55.361Z,59.10
2017-09-04T20:06:23.768Z,59.20
2017-09-04T20:08:53.121Z,59.20
2017-09-04T20:11:21.458Z,58.20
2017-09-04T20:13:49.764Z,57.80
2017-09-04T20:16:18.186Z,58.20
2017-09-04T20:18:46.504Z,59.50
2017-09-04T20:21:14.875Z,59.00
2017-09-04T20:23:43.189Z,58.40
2017-09-04T20:26:11.593Z,59.10
2017-09-04T20:28:39.910Z,58.80
2017-09-04T20:31:08.206Z,58.90
2017-09-04T20:33:37.577Z,58.80
2017-09-04T20:36:05.879Z,57.80
2017-09-04T20:38:34.185Z,56.50
2017-09-04T20:41:02.554Z,56.70
2017-09-04T20:43:30.915Z,56.40
2017-09-04T20:45:59.245Z,56.80
2017-09-04T20:48:27.540Z,56.80
2017-09-04T20:50:56.076Z,56.60
2017-09-04T20:53:24.397Z,56.30
2017-09-04T20:55:52.839Z,55.50
2017-09-04T20:58:21.130Z,55.60
2017-09-04T21:00:49.433Z,55.50
2017-09-04T21:03:17.749Z,55.60
2017-09-04T21:05:46.047Z,55.50
2017-09-04T21:08:14.406Z,55.80
2017-09-04T21:10:42.743Z,56.00
2017-09-04T21:13:11.132Z,55.20
2017-09-04T21:15:39.469Z,54.80
2017-09-04T21:18:07.845Z,54.50
2017-09-04T21:20:43.809Z,54.30
2017-09-04T21:23:12.175Z,54.20
2017-09-04T21:25:40.481Z,54.10
2017-09-04T21:28:08.855Z,53.90
2017-09-04T21:30:37.196Z,53.70
2017-09-04T21:33:05.521Z,53.60
2017-09-04T21:35:33.844Z,53.40
2017-09-04T21:38:02.162Z,53.60
2017-09-04T21:40:30.516Z,53.80
2017-09-04T21:42:58.858Z,53.50
2017-09-04T21:45:27.343Z,53.90
2017-09-04T21:47:55.671Z,54.20
2017-09-04T21:50:23.985Z,54.40
2017-09-04T21:52:52.522Z,54.10
2017-09-04T21:55:20.831Z,54.60
2017-09-04T21:57:49.129Z,54.50
2017-09-04T22:00:17.464Z,54.90
2017-09-04T22:02:45.841Z,55.50
2017-09-04T22:05:14.160Z,55.60
2017-09-04T22:07:42.464Z,54.50
2017-09-04T22:10:10.829Z,55.20
2017-09-04T22:12:39.238Z,54.70
2017-09-04T22:15:07.570Z,54.60
2017-09-04T22:17:35.900Z,55.00
2017-09-04T22:20:05.073Z,55.40
2017-09-04T22:22:34.377Z,55.30
2017-09-04T22:25:03.093Z,55.40
2017-09-04T22:27:31.447Z,55.00
2017-09-04T22:29:59.790Z,55.40
2017-09-04T22:32:28.094Z,55.30
2017-09-04T22:34:56.443Z,55.60
2017-09-04T22:37:24.746Z,55.80
2017-09-04T22:39:53.082Z,55.70
2017-09-04T22:42:21.384Z,56.00
2017-09-04T22:44:49.737Z,56.30
2017-09-04T22:47:18.082Z,56.40
2017-09-04T22:49:46.408Z,56.40
2017-09-04T22:52:14.764Z,56.30
2017-09-04T22:54:43.089Z,56.30
2017-09-04T22:57:12.379Z,56.50
2017-09-04T22:59:40.730Z,56.80
2017-09-04T23:02:09.062Z,56.80
2017-09-04T23:04:37.373Z,56.80
2017-09-04T23:07:05.709Z,56.90
2017-09-04T23:09:34.008Z,56.80
2017-09-04T23:12:02.309Z,57.20
2017-09-04T23:14:30.648Z,57.50
2017-09-04T23:16:58.954Z,57.60
2017-09-04T23:19:27.278Z,58.10
2017-09-04T23:21:55.671Z,58.00
2017-09-04T23:24:24.008Z,58.00
2017-09-04T23:26:52.497Z,58.70
2017-09-04T23:29:20.831Z,59.20
2017-09-04T23:31:49.163Z,59.30
2017-09-04T23:34:17.475Z,59.70
2017-09-04T23:36:45.820Z,59.90
2017-09-04T23:39:14.121Z,60.70
2017-09-04T23:41:42.434Z,61.30
2017-09-04T23:44:10.773Z,61.10
2017-09-04T23:46:39.079Z,62.00
2017-09-04T23:49:07.383Z,61.60
2017-09-04T23:51:35.728Z,61.50
2017-09-04T23:54:04.029Z,62.00
2017-09-04T23:56:32.337Z,61.80
2017-09-04T23:59:00.707Z,62.10
